createdAt,value
2022-11-01T00:05:05.974Z,12.90
2022-11-01T00:15:09.619Z,12.00
2022-11-01T00:25:13.278Z,13.10
2022-11-01T00:35:17.153Z,12.40
2022-11-01T00:45:21.024Z,13.40
2022-11-01T00:55:24.988Z,13.30
2022-11-01T01:05:28.860Z,16.60
2022-11-01T01:15:32.524Z,14.20
2022-11-01T01:25:40.716Z,14.00
2022-11-01T01:35:44.970Z,13.40
2022-11-01T01:45:48.639Z,13.60
2022-11-01T01:56:15.849Z,13.90
2022-11-01T02:06:22.252Z,14.10
2022-11-01T02:17:00.014Z,13.20
2022-11-01T02:27:08.909Z,14.70
2022-11-01T02:37:18.927Z,13.60
2022-11-01T02:47:25.746Z,12.30
2022-11-01T02:57:38.715Z,12.80
2022-11-01T03:07:46.589Z,13.50
2022-11-01T03:18:01.415Z,12.30
2022-11-01T03:28:07.272Z,11.60
2022-11-01T03:38:16.314Z,11.10
2022-11-01T03:48:19.884Z,11.30
2022-11-01T03:58:23.638Z,11.40
2022-11-01T04:08:27.215Z,11.60
2022-11-01T04:18:49.518Z,12.20
2022-11-01T04:28:59.203Z,9.60
2022-11-01T04:39:02.771Z,12.00
2022-11-01T04:49:06.233Z,8.70
2022-11-01T04:59:09.907Z,8.90
2022-11-01T05:09:13.778Z,9.70
2022-11-01T05:19:17.740Z,8.20
2022-11-01T05:29:32.610Z,9.20
2022-11-01T05:39:37.245Z,7.70
2022-11-01T05:49:41.111Z,8.50
2022-11-01T05:59:44.982Z,7.20
2022-11-01T06:09:48.658Z,14.60
2022-11-01T06:19:52.920Z,8.40
2022-11-01T06:29:56.896Z,8.60
2022-11-01T06:40:00.534Z,7.80
2022-11-01T06:50:05.385Z,9.20
2022-11-01T07:00:09.994Z,14.40
2022-11-01T07:10:14.030Z,11.50
2022-11-01T07:20:17.890Z,14.80
2022-11-01T07:30:22.495Z,9.60
2022-11-01T07:40:29.720Z,9.60
2022-11-01T07:50:34.927Z,8.60
2022-11-01T08:00:40.536Z,6.30
2022-11-01T08:10:44.832Z,5.20
2022-11-01T08:20:49.699Z,5.90
2022-11-01T08:30:53.570Z,5.40
2022-11-01T08:40:57.681Z,5.00
2022-11-01T08:51:03.322Z,6.30
2022-11-01T09:01:07.920Z,7.90
2022-11-01T09:11:12.222Z,6.30
2022-11-01T09:21:17.529Z,5.50
2022-11-01T09:31:21.698Z,4.50
2022-11-01T09:41:39.201Z,4.80
2022-11-01T09:51:43.180Z,3.40
2022-11-01T10:02:26.776Z,3.50
2022-11-01T10:12:52.191Z,7.70
2022-11-01T10:22:57.759Z,11.70
2022-11-01T10:33:40.890Z,14.30
2022-11-01T10:43:50.512Z,14.30
2022-11-01T10:53:58.023Z,18.00
2022-11-01T11:04:06.550Z,18.30
2022-11-01T11:14:13.242Z,17.40
2022-11-01T11:24:20.196Z,16.20
2022-11-01T11:34:36.030Z,16.50
2022-11-01T11:44:43.283Z,15.90
2022-11-01T11:54:47.644Z,16.90
2022-11-01T12:05:08.942Z,16.90
2022-11-01T12:15:30.706Z,19.30
2022-11-01T12:25:37.001Z,18.90
2022-11-01T12:35:46.173Z,19.60
2022-11-01T12:45:56.023Z,17.20
2022-11-01T12:56:01.202Z,18.10
2022-11-01T13:06:14.709Z,16.90
2022-11-01T13:16:21.460Z,15.70
2022-11-01T13:26:28.483Z,15.40
2022-11-01T13:36:45.051Z,13.60
2022-11-01T13:57:15.726Z,14.30
2022-11-01T14:07:19.387Z,14.30
2022-11-01T14:17:23.980Z,14.50
2022-11-01T14:27:36.731Z,14.10
2022-11-01T14:37:50.486Z,14.60
2022-11-01T14:47:58.962Z,14.70
2022-11-01T14:58:09.598Z,12.90
2022-11-01T15:08:25.380Z,14.50
2022-11-01T15:18:31.400Z,16.00
2022-11-01T15:28:43.569Z,18.80
2022-11-01T15:38:56.406Z,17.20
2022-11-01T15:49:38.102Z,13.60
2022-11-01T16:00:32.195Z,19.90
2022-11-01T16:10:36.546Z,22.10
2022-11-01T16:20:42.125Z,17.90
2022-11-01T16:30:57.700Z,17.60
2022-11-01T16:41:25.116Z,16.40
2022-11-01T16:51:31.593Z,17.40
2022-11-01T17:01:36.691Z,17.80
2022-11-01T17:11:45.021Z,16.30
2022-11-01T17:21:52.909Z,17.50
2022-11-01T17:31:57.581Z,17.60
2022-11-01T17:42:03.082Z,16.30
2022-11-01T17:52:07.849Z,23.90
2022-11-01T18:02:13.632Z,19.00
2022-11-01T18:12:35.141Z,16.20
2022-11-01T18:22:56.523Z,17.10
2022-11-01T18:33:14.745Z,16.90
2022-11-01T18:43:22.170Z,14.70
2022-11-01T18:53:28.498Z,16.00
2022-11-01T19:03:33.278Z,17.30
2022-11-01T19:13:39.559Z,20.20
2022-11-01T19:23:49.428Z,18.90
2022-11-01T19:33:56.574Z,25.10
2022-11-01T19:44:19.141Z,20.40
2022-11-01T19:54:26.381Z,21.30
2022-11-01T20:04:33.449Z,22.20
2022-11-01T20:14:40.688Z,21.70
2022-11-01T20:24:46.730Z,23.20
2022-11-01T20:34:51.599Z,31.10
2022-11-01T20:44:56.700Z,42.80
2022-11-01T20:55:01.600Z,36.10
2022-11-01T21:05:18.713Z,30.40
2022-11-01T21:15:26.012Z,30.40
2022-11-01T21:25:29.637Z,25.00
2022-11-01T21:35:39.200Z,22.10
2022-11-01T21:45:46.862Z,31.20
2022-11-01T21:55:50.871Z,26.40
2022-11-01T22:05:54.828Z,27.20
2022-11-01T22:15:58.851Z,23.50
2022-11-01T22:26:02.515Z,26.70
2022-11-01T22:36:08.564Z,25.00
2022-11-01T22:46:24.175Z,26.10
2022-11-01T22:56:29.996Z,31.00
2022-11-01T23:06:35.498Z,23.10
2022-11-01T23:16:44.432Z,28.60
2022-11-01T23:26:47.946Z,21.10
2022-11-01T23:36:51.852Z,19.70
2022-11-01T23:47:11.039Z,19.50
2022-11-01T23:57:20.674Z,19.90
